sensor_id;sensor_type;location;lat;lon;timestamp;P1;durP1;ratioP1;P2;durP2;ratioP2
64457;SDS011;58438;51.200;7.252;2023-01-06T00:00:59;9.13;;;4.43;;
64457;SDS011;58438;51.200;7.252;2023-01-06T00:03:48;8.90;;;5.28;;
64457;SDS011;58438;51.200;7.252;2023-01-06T00:06:36;12.48;;;5.70;;
64457;SDS011;58438;51.200;7.252;2023-01-06T00:09:24;11.43;;;5.53;;
64457;SDS011;58438;51.200;7.252;2023-01-06T00:12:12;11.60;;;5.32;;
64457;SDS011;58438;51.200;7.252;2023-01-06T00:15:00;13.88;;;6.38;;
64457;SDS011;58438;51.200;7.252;2023-01-06T00:17:47;12.23;;;6.05;;
64457;SDS011;58438;51.200;7.252;2023-01-06T00:20:35;17.50;;;6.50;;
64457;SDS011;58438;51.200;7.252;2023-01-06T00:23:23;13.18;;;6.28;;
64457;SDS011;58438;51.200;7.252;2023-01-06T00:26:10;14.02;;;6.47;;
64457;SDS011;58438;51.200;7.252;2023-01-06T00:28:58;13.95;;;7.15;;
64457;SDS011;58438;51.200;7.252;2023-01-06T00:31:47;16.35;;;7.70;;
64457;SDS011;58438;51.200;7.252;2023-01-06T00:34:35;17.73;;;8.18;;
64457;SDS011;58438;51.200;7.252;2023-01-06T00:37:22;18.35;;;8.05;;
64457;SDS011;58438;51.200;7.252;2023-01-06T00:40:10;18.70;;;9.43;;
64457;SDS011;58438;51.200;7.252;2023-01-06T00:42:57;24.65;;;9.95;;
64457;SDS011;58438;51.200;7.252;2023-01-06T00:45:44;21.05;;;9.68;;
64457;SDS011;58438;51.200;7.252;2023-01-06T00:48:33;19.02;;;8.75;;
64457;SDS011;58438;51.200;7.252;2023-01-06T00:51:21;22.70;;;7.70;;
64457;SDS011;58438;51.200;7.252;2023-01-06T00:54:09;19.10;;;7.88;;
64457;SDS011;58438;51.200;7.252;2023-01-06T00:56:58;18.60;;;7.68;;
64457;SDS011;58438;51.200;7.252;2023-01-06T00:59:45;11.80;;;5.90;;
64457;SDS011;58438;51.200;7.252;2023-01-06T01:02:32;17.75;;;6.32;;
64457;SDS011;58438;51.200;7.252;2023-01-06T01:05:21;10.05;;;4.95;;
64457;SDS011;58438;51.200;7.252;2023-01-06T01:08:09;9.18;;;5.13;;
64457;SDS011;58438;51.200;7.252;2023-01-06T01:11:01;13.40;;;5.50;;
64457;SDS011;58438;51.200;7.252;2023-01-06T01:13:49;12.38;;;5.45;;
64457;SDS011;58438;51.200;7.252;2023-01-06T01:16:37;9.55;;;5.00;;
64457;SDS011;58438;51.200;7.252;2023-01-06T01:19:25;10.93;;;5.70;;
64457;SDS011;58438;51.200;7.252;2023-01-06T01:22:15;11.85;;;5.75;;
64457;SDS011;58438;51.200;7.252;2023-01-06T01:25:06;12.27;;;5.68;;
64457;SDS011;58438;51.200;7.252;2023-01-06T01:27:56;10.25;;;6.07;;
64457;SDS011;58438;51.200;7.252;2023-01-06T01:30:46;10.70;;;5.88;;
64457;SDS011;58438;51.200;7.252;2023-01-06T01:33:36;13.10;;;5.05;;
64457;SDS011;58438;51.200;7.252;2023-01-06T01:36:25;10.43;;;4.70;;
64457;SDS011;58438;51.200;7.252;2023-01-06T01:39:17;11.38;;;5.68;;
64457;SDS011;58438;51.200;7.252;2023-01-06T01:42:12;12.27;;;5.43;;
64457;SDS011;58438;51.200;7.252;2023-01-06T01:45:05;12.38;;;5.60;;
64457;SDS011;58438;51.200;7.252;2023-01-06T01:48:05;11.52;;;5.40;;
64457;SDS011;58438;51.200;7.252;2023-01-06T01:51:03;9.50;;;5.22;;
64457;SDS011;58438;51.200;7.252;2023-01-06T01:53:54;11.88;;;5.35;;
64457;SDS011;58438;51.200;7.252;2023-01-06T01:56:52;10.07;;;5.43;;
64457;SDS011;58438;51.200;7.252;2023-01-06T01:59:46;8.70;;;5.05;;
64457;SDS011;58438;51.200;7.252;2023-01-06T02:02:37;7.97;;;4.40;;
64457;SDS011;58438;51.200;7.252;2023-01-06T02:05:28;6.38;;;4.00;;
64457;SDS011;58438;51.200;7.252;2023-01-06T02:08:20;8.18;;;4.13;;
64457;SDS011;58438;51.200;7.252;2023-01-06T02:11:09;10.38;;;4.38;;
64457;SDS011;58438;51.200;7.252;2023-01-06T02:14:02;6.47;;;4.15;;
64457;SDS011;58438;51.200;7.252;2023-01-06T02:17:02;7.28;;;4.43;;
64457;SDS011;58438;51.200;7.252;2023-01-06T02:20:15;7.53;;;4.40;;
64457;SDS011;58438;51.200;7.252;2023-01-06T02:23:25;7.97;;;4.55;;
64457;SDS011;58438;51.200;7.252;2023-01-06T02:26:34;10.55;;;4.05;;
64457;SDS011;58438;51.200;7.252;2023-01-06T02:29:53;8.95;;;4.03;;
64457;SDS011;58438;51.200;7.252;2023-01-06T02:33:06;7.22;;;3.92;;
64457;SDS011;58438;51.200;7.252;2023-01-06T02:36:03;7.22;;;3.45;;
64457;SDS011;58438;51.200;7.252;2023-01-06T02:39:09;6.68;;;3.53;;
64457;SDS011;58438;51.200;7.252;2023-01-06T02:42:12;9.68;;;4.05;;
64457;SDS011;58438;51.200;7.252;2023-01-06T02:45:07;7.40;;;3.03;;
64457;SDS011;58438;51.200;7.252;2023-01-06T02:48:07;11.00;;;3.95;;
64457;SDS011;58438;51.200;7.252;2023-01-06T02:51:00;9.30;;;4.25;;
64457;SDS011;58438;51.200;7.252;2023-01-06T02:53:56;8.02;;;4.10;;
64457;SDS011;58438;51.200;7.252;2023-01-06T02:56:53;7.93;;;3.97;;
64457;SDS011;58438;51.200;7.252;2023-01-06T02:59:48;5.43;;;3.22;;
64457;SDS011;58438;51.200;7.252;2023-01-06T03:02:38;9.57;;;3.67;;
64457;SDS011;58438;51.200;7.252;2023-01-06T03:05:29;8.82;;;3.38;;
64457;SDS011;58438;51.200;7.252;2023-01-06T03:08:21;5.85;;;2.63;;
64457;SDS011;58438;51.200;7.252;2023-01-06T03:11:12;6.25;;;2.85;;
64457;SDS011;58438;51.200;7.252;2023-01-06T03:14:01;6.25;;;2.55;;
64457;SDS011;58438;51.200;7.252;2023-01-06T03:16:50;8.27;;;2.97;;
64457;SDS011;58438;51.200;7.252;2023-01-06T03:19:38;5.22;;;2.47;;
64457;SDS011;58438;51.200;7.252;2023-01-06T03:22:27;6.50;;;2.47;;
64457;SDS011;58438;51.200;7.252;2023-01-06T03:25:14;5.35;;;2.10;;
64457;SDS011;58438;51.200;7.252;2023-01-06T03:28:02;6.03;;;2.58;;
64457;SDS011;58438;51.200;7.252;2023-01-06T03:30:51;4.28;;;2.20;;
64457;SDS011;58438;51.200;7.252;2023-01-06T03:33:44;5.35;;;2.17;;
64457;SDS011;58438;51.200;7.252;2023-01-06T03:36:35;4.07;;;1.67;;
64457;SDS011;58438;51.200;7.252;2023-01-06T03:39:37;5.53;;;2.00;;
64457;SDS011;58438;51.200;7.252;2023-01-06T03:42:32;8.82;;;2.67;;
64457;SDS011;58438;51.200;7.252;2023-01-06T03:45:43;3.75;;;1.80;;
64457;SDS011;58438;51.200;7.252;2023-01-06T03:48:43;3.38;;;1.90;;
64457;SDS011;58438;51.200;7.252;2023-01-06T03:51:44;5.18;;;2.08;;
64457;SDS011;58438;51.200;7.252;2023-01-06T03:54:38;4.85;;;2.25;;
64457;SDS011;58438;51.200;7.252;2023-01-06T03:57:30;3.63;;;1.83;;
64457;SDS011;58438;51.200;7.252;2023-01-06T04:00:20;4.47;;;1.83;;
64457;SDS011;58438;51.200;7.252;2023-01-06T04:03:10;4.68;;;2.20;;
64457;SDS011;58438;51.200;7.252;2023-01-06T04:05:58;7.05;;;2.42;;
64457;SDS011;58438;51.200;7.252;2023-01-06T04:08:45;4.05;;;2.55;;
64457;SDS011;58438;51.200;7.252;2023-01-06T04:11:34;3.65;;;2.08;;
64457;SDS011;58438;51.200;7.252;2023-01-06T04:14:39;6.97;;;2.45;;
64457;SDS011;58438;51.200;7.252;2023-01-06T04:17:27;8.85;;;3.25;;
64457;SDS011;58438;51.200;7.252;2023-01-06T04:20:15;6.30;;;2.53;;
64457;SDS011;58438;51.200;7.252;2023-01-06T04:23:04;3.65;;;1.83;;
64457;SDS011;58438;51.200;7.252;2023-01-06T04:25:51;5.05;;;2.08;;
64457;SDS011;58438;51.200;7.252;2023-01-06T04:28:40;2.55;;;1.75;;
64457;SDS011;58438;51.200;7.252;2023-01-06T04:31:28;3.53;;;1.88;;
64457;SDS011;58438;51.200;7.252;2023-01-06T04:34:16;5.57;;;2.25;;
64457;SDS011;58438;51.200;7.252;2023-01-06T04:37:03;3.40;;;1.95;;
64457;SDS011;58438;51.200;7.252;2023-01-06T04:39:51;3.65;;;1.77;;
64457;SDS011;58438;51.200;7.252;2023-01-06T04:42:38;6.30;;;2.15;;
64457;SDS011;58438;51.200;7.252;2023-01-06T04:45:44;6.93;;;1.98;;
64457;SDS011;58438;51.200;7.252;2023-01-06T04:48:32;2.83;;;1.92;;
64457;SDS011;58438;51.200;7.252;2023-01-06T04:51:19;2.85;;;1.88;;
64457;SDS011;58438;51.200;7.252;2023-01-06T04:54:07;5.97;;;1.92;;
64457;SDS011;58438;51.200;7.252;2023-01-06T04:56:55;4.50;;;1.90;;
64457;SDS011;58438;51.200;7.252;2023-01-06T04:59:42;3.33;;;1.92;;
64457;SDS011;58438;51.200;7.252;2023-01-06T05:02:31;2.08;;;1.48;;
64457;SDS011;58438;51.200;7.252;2023-01-06T05:05:18;2.30;;;1.33;;
64457;SDS011;58438;51.200;7.252;2023-01-06T05:08:06;5.95;;;2.22;;
64457;SDS011;58438;51.200;7.252;2023-01-06T05:10:57;4.05;;;1.40;;
64457;SDS011;58438;51.200;7.252;2023-01-06T05:13:45;2.20;;;1.35;;
64457;SDS011;58438;51.200;7.252;2023-01-06T05:16:33;4.60;;;1.75;;
64457;SDS011;58438;51.200;7.252;2023-01-06T05:19:22;4.40;;;1.45;;
64457;SDS011;58438;51.200;7.252;2023-01-06T05:22:09;2.65;;;1.42;;
64457;SDS011;58438;51.200;7.252;2023-01-06T05:24:57;3.83;;;1.23;;
64457;SDS011;58438;51.200;7.252;2023-01-06T05:27:45;2.08;;;1.20;;
64457;SDS011;58438;51.200;7.252;2023-01-06T05:30:32;3.53;;;1.35;;
64457;SDS011;58438;51.200;7.252;2023-01-06T05:33:19;2.28;;;1.27;;
64457;SDS011;58438;51.200;7.252;2023-01-06T05:36:09;1.95;;;1.20;;
64457;SDS011;58438;51.200;7.252;2023-01-06T05:38:58;3.13;;;1.77;;
64457;SDS011;58438;51.200;7.252;2023-01-06T05:41:45;2.45;;;1.50;;
64457;SDS011;58438;51.200;7.252;2023-01-06T05:44:33;3.55;;;1.40;;
64457;SDS011;58438;51.200;7.252;2023-01-06T05:47:21;3.22;;;1.20;;
64457;SDS011;58438;51.200;7.252;2023-01-06T05:50:08;1.98;;;1.42;;
64457;SDS011;58438;51.200;7.252;2023-01-06T05:52:57;3.75;;;1.30;;
64457;SDS011;58438;51.200;7.252;2023-01-06T05:55:45;4.25;;;1.60;;
64457;SDS011;58438;51.200;7.252;2023-01-06T05:58:32;4.38;;;1.70;;
64457;SDS011;58438;51.200;7.252;2023-01-06T06:01:22;2.00;;;1.40;;
64457;SDS011;58438;51.200;7.252;2023-01-06T06:04:11;2.45;;;1.20;;
64457;SDS011;58438;51.200;7.252;2023-01-06T06:06:58;7.32;;;1.90;;
64457;SDS011;58438;51.200;7.252;2023-01-06T06:09:47;3.05;;;1.40;;
64457;SDS011;58438;51.200;7.252;2023-01-06T06:12:35;3.30;;;1.17;;
64457;SDS011;58438;51.200;7.252;2023-01-06T06:15:22;2.45;;;1.25;;
64457;SDS011;58438;51.200;7.252;2023-01-06T06:18:10;3.65;;;1.60;;
64457;SDS011;58438;51.200;7.252;2023-01-06T06:20:59;2.13;;;1.40;;
64457;SDS011;58438;51.200;7.252;2023-01-06T06:23:46;1.90;;;1.30;;
64457;SDS011;58438;51.200;7.252;2023-01-06T06:26:35;3.30;;;1.65;;
64457;SDS011;58438;51.200;7.252;2023-01-06T06:29:22;3.45;;;1.40;;
64457;SDS011;58438;51.200;7.252;2023-01-06T06:32:10;3.13;;;1.40;;
64457;SDS011;58438;51.200;7.252;2023-01-06T06:34:58;4.57;;;1.20;;
64457;SDS011;58438;51.200;7.252;2023-01-06T06:37:45;4.90;;;1.88;;
64457;SDS011;58438;51.200;7.252;2023-01-06T06:40:33;1.73;;;1.30;;
64457;SDS011;58438;51.200;7.252;2023-01-06T06:43:22;3.58;;;1.30;;
64457;SDS011;58438;51.200;7.252;2023-01-06T06:46:09;3.20;;;1.70;;
64457;SDS011;58438;51.200;7.252;2023-01-06T06:48:57;2.03;;;1.45;;
64457;SDS011;58438;51.200;7.252;2023-01-06T06:51:44;2.90;;;1.10;;
64457;SDS011;58438;51.200;7.252;2023-01-06T06:54:33;2.30;;;1.38;;
64457;SDS011;58438;51.200;7.252;2023-01-06T06:57:21;3.72;;;1.30;;
64457;SDS011;58438;51.200;7.252;2023-01-06T07:00:10;3.22;;;1.20;;
64457;SDS011;58438;51.200;7.252;2023-01-06T07:02:58;3.65;;;1.48;;
64457;SDS011;58438;51.200;7.252;2023-01-06T07:05:46;2.67;;;1.63;;
64457;SDS011;58438;51.200;7.252;2023-01-06T07:08:35;2.33;;;1.52;;
64457;SDS011;58438;51.200;7.252;2023-01-06T07:11:22;2.42;;;1.50;;
64457;SDS011;58438;51.200;7.252;2023-01-06T07:14:10;4.00;;;1.85;;
64457;SDS011;58438;51.200;7.252;2023-01-06T07:17:00;1.80;;;1.17;;
64457;SDS011;58438;51.200;7.252;2023-01-06T07:19:48;1.90;;;1.45;;
64457;SDS011;58438;51.200;7.252;2023-01-06T07:22:36;4.63;;;1.33;;
64457;SDS011;58438;51.200;7.252;2023-01-06T07:25:24;2.05;;;1.15;;
64457;SDS011;58438;51.200;7.252;2023-01-06T07:28:12;2.72;;;1.60;;
64457;SDS011;58438;51.200;7.252;2023-01-06T07:31:00;1.98;;;1.30;;
64457;SDS011;58438;51.200;7.252;2023-01-06T07:33:48;2.88;;;1.10;;
64457;SDS011;58438;51.200;7.252;2023-01-06T07:36:36;1.90;;;1.30;;
64457;SDS011;58438;51.200;7.252;2023-01-06T07:39:24;3.72;;;1.30;;
64457;SDS011;58438;51.200;7.252;2023-01-06T07:42:12;2.30;;;1.30;;
64457;SDS011;58438;51.200;7.252;2023-01-06T07:44:59;1.10;;;0.80;;
64457;SDS011;58438;51.200;7.252;2023-01-06T07:47:47;2.58;;;1.38;;
64457;SDS011;58438;51.200;7.252;2023-01-06T07:50:36;2.75;;;1.20;;
64457;SDS011;58438;51.200;7.252;2023-01-06T07:53:23;2.28;;;0.90;;
64457;SDS011;58438;51.200;7.252;2023-01-06T07:56:11;1.30;;;1.00;;
64457;SDS011;58438;51.200;7.252;2023-01-06T07:58:58;3.05;;;1.05;;
64457;SDS011;58438;51.200;7.252;2023-01-06T08:01:46;4.35;;;1.30;;
64457;SDS011;58438;51.200;7.252;2023-01-06T08:04:35;2.35;;;1.20;;
64457;SDS011;58438;51.200;7.252;2023-01-06T08:07:24;4.47;;;1.10;;
64457;SDS011;58438;51.200;7.252;2023-01-06T08:10:11;2.05;;;1.10;;
64457;SDS011;58438;51.200;7.252;2023-01-06T08:12:59;1.42;;;0.90;;
64457;SDS011;58438;51.200;7.252;2023-01-06T08:15:46;2.28;;;1.10;;
64457;SDS011;58438;51.200;7.252;2023-01-06T08:18:37;2.60;;;1.35;;
64457;SDS011;58438;51.200;7.252;2023-01-06T08:21:25;10.18;;;1.35;;
64457;SDS011;58438;51.200;7.252;2023-01-06T08:24:14;1.25;;;1.00;;
64457;SDS011;58438;51.200;7.252;2023-01-06T08:27:01;1.58;;;1.10;;
64457;SDS011;58438;51.200;7.252;2023-01-06T08:29:49;6.95;;;1.40;;
64457;SDS011;58438;51.200;7.252;2023-01-06T08:32:39;1.15;;;1.00;;
64457;SDS011;58438;51.200;7.252;2023-01-06T08:35:27;2.17;;;1.30;;
64457;SDS011;58438;51.200;7.252;2023-01-06T08:38:14;3.20;;;1.10;;
64457;SDS011;58438;51.200;7.252;2023-01-06T08:41:04;1.60;;;1.23;;
64457;SDS011;58438;51.200;7.252;2023-01-06T08:43:51;2.47;;;1.30;;
64457;SDS011;58438;51.200;7.252;2023-01-06T08:46:40;3.20;;;1.15;;
64457;SDS011;58438;51.200;7.252;2023-01-06T08:49:28;1.58;;;1.15;;
64457;SDS011;58438;51.200;7.252;2023-01-06T08:52:15;3.15;;;1.45;;
64457;SDS011;58438;51.200;7.252;2023-01-06T08:55:03;3.50;;;1.63;;
64457;SDS011;58438;51.200;7.252;2023-01-06T08:57:52;2.58;;;1.33;;
64457;SDS011;58438;51.200;7.252;2023-01-06T09:00:40;1.80;;;1.30;;
64457;SDS011;58438;51.200;7.252;2023-01-06T09:03:28;1.77;;;1.27;;
64457;SDS011;58438;51.200;7.252;2023-01-06T09:06:16;3.75;;;1.73;;
64457;SDS011;58438;51.200;7.252;2023-01-06T09:09:04;1.55;;;1.25;;
64457;SDS011;58438;51.200;7.252;2023-01-06T09:11:53;1.70;;;1.40;;
64457;SDS011;58438;51.200;7.252;2023-01-06T09:14:41;3.28;;;1.45;;
64457;SDS011;58438;51.200;7.252;2023-01-06T09:17:29;2.10;;;1.60;;
64457;SDS011;58438;51.200;7.252;2023-01-06T09:20:16;2.58;;;1.55;;
64457;SDS011;58438;51.200;7.252;2023-01-06T09:23:04;2.47;;;1.50;;
64457;SDS011;58438;51.200;7.252;2023-01-06T09:25:51;2.78;;;1.60;;
64457;SDS011;58438;51.200;7.252;2023-01-06T09:28:40;2.85;;;1.35;;
64457;SDS011;58438;51.200;7.252;2023-01-06T09:31:29;3.63;;;1.73;;
64457;SDS011;58438;51.200;7.252;2023-01-06T09:34:17;2.45;;;1.60;;
64457;SDS011;58438;51.200;7.252;2023-01-06T09:37:04;2.10;;;1.70;;
64457;SDS011;58438;51.200;7.252;2023-01-06T09:39:52;2.45;;;1.80;;
64457;SDS011;58438;51.200;7.252;2023-01-06T09:42:43;3.83;;;1.63;;
64457;SDS011;58438;51.200;7.252;2023-01-06T09:45:40;1.67;;;1.35;;
64457;SDS011;58438;51.200;7.252;2023-01-06T09:48:34;3.63;;;1.65;;
64457;SDS011;58438;51.200;7.252;2023-01-06T09:51:25;1.60;;;1.33;;
64457;SDS011;58438;51.200;7.252;2023-01-06T09:54:15;2.22;;;1.40;;
64457;SDS011;58438;51.200;7.252;2023-01-06T09:57:06;3.65;;;1.95;;
64457;SDS011;58438;51.200;7.252;2023-01-06T10:00:02;2.00;;;1.55;;
64457;SDS011;58438;51.200;7.252;2023-01-06T10:02:51;2.17;;;1.65;;
64457;SDS011;58438;51.200;7.252;2023-01-06T10:05:43;2.92;;;1.65;;
64457;SDS011;58438;51.200;7.252;2023-01-06T10:08:40;3.47;;;2.15;;
64457;SDS011;58438;51.200;7.252;2023-01-06T10:11:39;4.68;;;2.40;;
64457;SDS011;58438;51.200;7.252;2023-01-06T10:14:39;3.05;;;2.20;;
64457;SDS011;58438;51.200;7.252;2023-01-06T10:17:44;3.72;;;2.17;;
64457;SDS011;58438;51.200;7.252;2023-01-06T10:20:44;2.88;;;1.90;;
64457;SDS011;58438;51.200;7.252;2023-01-06T10:23:39;3.38;;;1.92;;
64457;SDS011;58438;51.200;7.252;2023-01-06T10:26:36;3.42;;;2.38;;
64457;SDS011;58438;51.200;7.252;2023-01-06T10:29:29;2.65;;;2.05;;
64457;SDS011;58438;51.200;7.252;2023-01-06T10:32:20;3.08;;;2.10;;
64457;SDS011;58438;51.200;7.252;2023-01-06T10:35:09;3.47;;;2.45;;
64457;SDS011;58438;51.200;7.252;2023-01-06T10:38:02;3.75;;;2.90;;
64457;SDS011;58438;51.200;7.252;2023-01-06T10:40:52;4.85;;;3.40;;
64457;SDS011;58438;51.200;7.252;2023-01-06T10:43:42;7.25;;;4.18;;
64457;SDS011;58438;51.200;7.252;2023-01-06T10:46:31;8.13;;;4.93;;
64457;SDS011;58438;51.200;7.252;2023-01-06T10:49:19;5.38;;;4.05;;
64457;SDS011;58438;51.200;7.252;2023-01-06T10:52:08;6.80;;;3.78;;
64457;SDS011;58438;51.200;7.252;2023-01-06T10:54:58;5.35;;;3.65;;
64457;SDS011;58438;51.200;7.252;2023-01-06T10:57:51;5.97;;;4.45;;
64457;SDS011;58438;51.200;7.252;2023-01-06T11:00:52;5.35;;;3.72;;
64457;SDS011;58438;51.200;7.252;2023-01-06T11:03:41;4.18;;;2.90;;
64457;SDS011;58438;51.200;7.252;2023-01-06T11:06:30;4.35;;;3.03;;
64457;SDS011;58438;51.200;7.252;2023-01-06T11:09:22;5.18;;;3.65;;
64457;SDS011;58438;51.200;7.252;2023-01-06T11:12:15;4.70;;;3.53;;
64457;SDS011;58438;51.200;7.252;2023-01-06T11:15:07;5.32;;;3.42;;
64457;SDS011;58438;51.200;7.252;2023-01-06T11:18:16;4.82;;;4.07;;
64457;SDS011;58438;51.200;7.252;2023-01-06T11:21:07;6.43;;;4.82;;
64457;SDS011;58438;51.200;7.252;2023-01-06T11:24:01;4.97;;;3.40;;
64457;SDS011;58438;51.200;7.252;2023-01-06T11:27:01;7.45;;;4.07;;
64457;SDS011;58438;51.200;7.252;2023-01-06T11:30:08;5.50;;;3.45;;
64457;SDS011;58438;51.200;7.252;2023-01-06T11:33:12;6.70;;;4.78;;
64457;SDS011;58438;51.200;7.252;2023-01-06T11:36:05;6.45;;;3.80;;
64457;SDS011;58438;51.200;7.252;2023-01-06T11:38:56;9.07;;;5.15;;
64457;SDS011;58438;51.200;7.252;2023-01-06T11:41:46;7.60;;;4.40;;
64457;SDS011;58438;51.200;7.252;2023-01-06T11:44:37;5.68;;;4.47;;
64457;SDS011;58438;51.200;7.252;2023-01-06T11:47:27;9.75;;;5.35;;
64457;SDS011;58438;51.200;7.252;2023-01-06T11:50:15;8.38;;;5.47;;
64457;SDS011;58438;51.200;7.252;2023-01-06T11:53:13;8.27;;;5.25;;
64457;SDS011;58438;51.200;7.252;2023-01-06T11:56:03;8.48;;;5.50;;
64457;SDS011;58438;51.200;7.252;2023-01-06T11:58:55;9.18;;;5.30;;
64457;SDS011;58438;51.200;7.252;2023-01-06T12:01:45;8.00;;;4.65;;
64457;SDS011;58438;51.200;7.252;2023-01-06T12:04:39;7.63;;;4.80;;
64457;SDS011;58438;51.200;7.252;2023-01-06T12:07:28;6.07;;;4.35;;
64457;SDS011;58438;51.200;7.252;2023-01-06T12:10:18;6.10;;;3.80;;
64457;SDS011;58438;51.200;7.252;2023-01-06T12:13:09;5.78;;;3.67;;
64457;SDS011;58438;51.200;7.252;2023-01-06T12:16:00;5.32;;;3.95;;
64457;SDS011;58438;51.200;7.252;2023-01-06T12:18:51;6.15;;;4.15;;
64457;SDS011;58438;51.200;7.252;2023-01-06T12:21:41;5.45;;;3.50;;
64457;SDS011;58438;51.200;7.252;2023-01-06T12:24:29;4.22;;;2.80;;
64457;SDS011;58438;51.200;7.252;2023-01-06T12:27:20;4.93;;;3.00;;
64457;SDS011;58438;51.200;7.252;2023-01-06T12:30:12;4.97;;;3.10;;
64457;SDS011;58438;51.200;7.252;2023-01-06T12:33:02;6.68;;;3.30;;
64457;SDS011;58438;51.200;7.252;2023-01-06T12:35:51;6.78;;;3.38;;
64457;SDS011;58438;51.200;7.252;2023-01-06T12:38:42;5.93;;;2.85;;
64457;SDS011;58438;51.200;7.252;2023-01-06T12:41:34;4.57;;;3.08;;
64457;SDS011;58438;51.200;7.252;2023-01-06T12:44:28;4.25;;;2.58;;
64457;SDS011;58438;51.200;7.252;2023-01-06T12:47:21;4.45;;;2.92;;
64457;SDS011;58438;51.200;7.252;2023-01-06T12:50:19;4.80;;;2.65;;
64457;SDS011;58438;51.200;7.252;2023-01-06T12:53:10;6.38;;;3.05;;
64457;SDS011;58438;51.200;7.252;2023-01-06T12:56:14;2.97;;;2.35;;
64457;SDS011;58438;51.200;7.252;2023-01-06T12:59:06;3.22;;;2.90;;
64457;SDS011;58438;51.200;7.252;2023-01-06T13:01:57;4.20;;;3.13;;
64457;SDS011;58438;51.200;7.252;2023-01-06T13:04:50;3.88;;;2.75;;
64457;SDS011;58438;51.200;7.252;2023-01-06T13:07:41;3.75;;;2.67;;
64457;SDS011;58438;51.200;7.252;2023-01-06T13:10:33;3.13;;;2.47;;
64457;SDS011;58438;51.200;7.252;2023-01-06T13:13:30;3.42;;;2.83;;
64457;SDS011;58438;51.200;7.252;2023-01-06T13:16:21;6.03;;;3.53;;
64457;SDS011;58438;51.200;7.252;2023-01-06T13:19:15;4.10;;;3.03;;
64457;SDS011;58438;51.200;7.252;2023-01-06T13:22:03;3.15;;;2.60;;
64457;SDS011;58438;51.200;7.252;2023-01-06T13:24:58;3.17;;;2.08;;
64457;SDS011;58438;51.200;7.252;2023-01-06T13:27:51;2.97;;;1.90;;
64457;SDS011;58438;51.200;7.252;2023-01-06T13:30:46;4.57;;;3.00;;
64457;SDS011;58438;51.200;7.252;2023-01-06T13:33:44;5.38;;;3.63;;
64457;SDS011;58438;51.200;7.252;2023-01-06T13:36:40;6.05;;;4.22;;
64457;SDS011;58438;51.200;7.252;2023-01-06T13:39:30;7.38;;;4.82;;
64457;SDS011;58438;51.200;7.252;2023-01-06T13:42:19;6.95;;;4.47;;
64457;SDS011;58438;51.200;7.252;2023-01-06T13:45:11;9.82;;;5.80;;
64457;SDS011;58438;51.200;7.252;2023-01-06T13:48:00;9.45;;;5.28;;
64457;SDS011;58438;51.200;7.252;2023-01-06T13:50:53;7.65;;;4.20;;
64457;SDS011;58438;51.200;7.252;2023-01-06T13:53:41;8.40;;;4.90;;
64457;SDS011;58438;51.200;7.252;2023-01-06T13:56:29;8.93;;;4.43;;
64457;SDS011;58438;51.200;7.252;2023-01-06T13:59:20;7.03;;;3.65;;
64457;SDS011;58438;51.200;7.252;2023-01-06T14:02:12;6.30;;;4.20;;
64457;SDS011;58438;51.200;7.252;2023-01-06T14:08:24;7.57;;;4.45;;
64457;SDS011;58438;51.200;7.252;2023-01-06T14:11:25;8.93;;;5.97;;
64457;SDS011;58438;51.200;7.252;2023-01-06T14:14:19;7.78;;;5.13;;
64457;SDS011;58438;51.200;7.252;2023-01-06T14:17:24;9.10;;;5.20;;
64457;SDS011;58438;51.200;7.252;2023-01-06T14:20:21;8.93;;;5.93;;
64457;SDS011;58438;51.200;7.252;2023-01-06T14:23:17;8.25;;;5.53;;
64457;SDS011;58438;51.200;7.252;2023-01-06T14:26:08;6.57;;;4.53;;
64457;SDS011;58438;51.200;7.252;2023-01-06T14:29:03;9.70;;;4.65;;
64457;SDS011;58438;51.200;7.252;2023-01-06T14:32:10;8.40;;;4.30;;
64457;SDS011;58438;51.200;7.252;2023-01-06T14:35:17;6.22;;;4.15;;
64457;SDS011;58438;51.200;7.252;2023-01-06T14:38:06;7.72;;;4.82;;
64457;SDS011;58438;51.200;7.252;2023-01-06T14:40:59;7.13;;;4.82;;
64457;SDS011;58438;51.200;7.252;2023-01-06T14:43:53;8.02;;;4.35;;
64457;SDS011;58438;51.200;7.252;2023-01-06T14:46:42;9.55;;;5.00;;
64457;SDS011;58438;51.200;7.252;2023-01-06T14:49:31;8.95;;;4.72;;
64457;SDS011;58438;51.200;7.252;2023-01-06T14:52:19;8.15;;;4.65;;
64457;SDS011;58438;51.200;7.252;2023-01-06T14:55:10;7.63;;;4.57;;
64457;SDS011;58438;51.200;7.252;2023-01-06T14:57:59;6.93;;;3.47;;
64457;SDS011;58438;51.200;7.252;2023-01-06T15:00:47;6.82;;;3.72;;
64457;SDS011;58438;51.200;7.252;2023-01-06T15:03:35;6.85;;;4.63;;
64457;SDS011;58438;51.200;7.252;2023-01-06T15:06:23;8.30;;;5.20;;
64457;SDS011;58438;51.200;7.252;2023-01-06T15:09:10;7.88;;;4.63;;
64457;SDS011;58438;51.200;7.252;2023-01-06T15:11:57;8.75;;;4.90;;
64457;SDS011;58438;51.200;7.252;2023-01-06T15:14:45;8.85;;;5.35;;
64457;SDS011;58438;51.200;7.252;2023-01-06T15:17:33;10.15;;;4.85;;
64457;SDS011;58438;51.200;7.252;2023-01-06T15:20:21;10.52;;;4.47;;
64457;SDS011;58438;51.200;7.252;2023-01-06T15:23:11;5.35;;;3.75;;
64457;SDS011;58438;51.200;7.252;2023-01-06T15:26:00;6.07;;;3.67;;
64457;SDS011;58438;51.200;7.252;2023-01-06T15:28:57;7.45;;;4.20;;
64457;SDS011;58438;51.200;7.252;2023-01-06T15:31:47;7.78;;;5.03;;
64457;SDS011;58438;51.200;7.252;2023-01-06T15:34:38;6.50;;;4.68;;
64457;SDS011;58438;51.200;7.252;2023-01-06T15:37:26;10.07;;;5.38;;
64457;SDS011;58438;51.200;7.252;2023-01-06T15:40:17;11.23;;;5.70;;
64457;SDS011;58438;51.200;7.252;2023-01-06T15:43:05;9.38;;;5.57;;
64457;SDS011;58438;51.200;7.252;2023-01-06T15:45:55;9.55;;;5.32;;
64457;SDS011;58438;51.200;7.252;2023-01-06T15:48:44;9.80;;;5.93;;
64457;SDS011;58438;51.200;7.252;2023-01-06T15:51:33;8.73;;;5.38;;
64457;SDS011;58438;51.200;7.252;2023-01-06T15:54:20;9.10;;;5.35;;
64457;SDS011;58438;51.200;7.252;2023-01-06T15:57:09;8.85;;;5.38;;
64457;SDS011;58438;51.200;7.252;2023-01-06T16:00:02;10.48;;;5.55;;
64457;SDS011;58438;51.200;7.252;2023-01-06T16:02:50;8.45;;;4.82;;
64457;SDS011;58438;51.200;7.252;2023-01-06T16:05:38;9.57;;;5.38;;
64457;SDS011;58438;51.200;7.252;2023-01-06T16:08:28;10.27;;;5.63;;
64457;SDS011;58438;51.200;7.252;2023-01-06T16:11:24;8.48;;;5.45;;
64457;SDS011;58438;51.200;7.252;2023-01-06T16:14:27;8.77;;;5.28;;
64457;SDS011;58438;51.200;7.252;2023-01-06T16:17:19;10.00;;;5.75;;
64457;SDS011;58438;51.200;7.252;2023-01-06T16:20:17;11.18;;;6.35;;
64457;SDS011;58438;51.200;7.252;2023-01-06T16:23:13;9.50;;;6.00;;
64457;SDS011;58438;51.200;7.252;2023-01-06T16:26:05;8.65;;;5.53;;
64457;SDS011;58438;51.200;7.252;2023-01-06T16:28:53;8.00;;;5.35;;
64457;SDS011;58438;51.200;7.252;2023-01-06T16:31:40;9.73;;;5.68;;
64457;SDS011;58438;51.200;7.252;2023-01-06T16:34:29;7.80;;;4.65;;
64457;SDS011;58438;51.200;7.252;2023-01-06T16:37:16;9.52;;;5.90;;
64457;SDS011;58438;51.200;7.252;2023-01-06T16:40:04;11.80;;;6.15;;
64457;SDS011;58438;51.200;7.252;2023-01-06T16:42:56;11.70;;;6.63;;
64457;SDS011;58438;51.200;7.252;2023-01-06T16:45:45;12.07;;;6.82;;
64457;SDS011;58438;51.200;7.252;2023-01-06T16:48:35;11.05;;;5.68;;
64457;SDS011;58438;51.200;7.252;2023-01-06T16:51:22;7.20;;;4.18;;
64457;SDS011;58438;51.200;7.252;2023-01-06T16:54:10;9.10;;;4.88;;
64457;SDS011;58438;51.200;7.252;2023-01-06T16:56:58;9.27;;;5.57;;
64457;SDS011;58438;51.200;7.252;2023-01-06T16:59:48;9.20;;;5.18;;
64457;SDS011;58438;51.200;7.252;2023-01-06T17:02:36;9.52;;;4.78;;
64457;SDS011;58438;51.200;7.252;2023-01-06T17:05:25;9.85;;;5.47;;
64457;SDS011;58438;51.200;7.252;2023-01-06T17:08:14;8.95;;;5.43;;
64457;SDS011;58438;51.200;7.252;2023-01-06T17:11:05;11.48;;;6.07;;